createdAt,value
2018-06-28T00:00:37.894Z,99.90
2018-06-28T00:03:15.023Z,99.90
2018-06-28T00:05:52.272Z,99.90
2018-06-28T00:08:29.512Z,99.90
2018-06-28T00:11:09.714Z,99.90
2018-06-28T00:13:46.650Z,99.90
2018-06-28T00:16:23.736Z,99.90
2018-06-28T00:19:01.226Z,99.90
2018-06-28T00:21:38.479Z,99.90
2018-06-28T00:24:15.403Z,99.90
2018-06-28T00:26:52.547Z,99.90
2018-06-28T00:29:29.347Z,99.90
2018-06-28T00:32:07.093Z,99.90
2018-06-28T00:34:43.719Z,99.90
2018-06-28T00:37:20.931Z,99.90
2018-06-28T00:39:57.900Z,99.90
2018-06-28T00:42:35.425Z,99.90
2018-06-28T00:45:13.071Z,99.90
2018-06-28T00:47:50.824Z,99.90
2018-06-28T00:53:04.149Z,99.90
2018-06-28T00:55:42.069Z,99.90
2018-06-28T00:58:19.823Z,99.90
2018-06-28T01:00:56.434Z,99.90
2018-06-28T01:03:33.037Z,99.90
2018-06-28T01:06:10.661Z,99.90
2018-06-28T01:08:47.593Z,99.90
2018-06-28T01:11:24.851Z,99.90
2018-06-28T01:14:02.578Z,99.90
2018-06-28T01:16:40.067Z,99.90
2018-06-28T01:19:17.082Z,99.90
2018-06-28T01:21:54.532Z,99.90
2018-06-28T01:24:32.102Z,99.90
2018-06-28T01:27:12.304Z,99.90
2018-06-28T01:29:49.531Z,99.90
2018-06-28T01:32:26.616Z,99.90
2018-06-28T01:35:03.993Z,99.90
2018-06-28T01:37:40.951Z,99.90
2018-06-28T01:40:18.735Z,99.90
2018-06-28T01:43:06.596Z,99.90
2018-06-28T01:45:44.308Z,99.90
2018-06-28T01:48:21.317Z,99.90
2018-06-28T01:50:58.755Z,99.90
2018-06-28T01:53:35.603Z,99.90
2018-06-28T01:56:12.433Z,99.90
2018-06-28T01:58:49.336Z,99.90
2018-06-28T02:01:26.666Z,99.90
2018-06-28T02:04:04.396Z,99.90
2018-06-28T02:06:41.259Z,99.90
2018-06-28T02:09:18.498Z,99.90
2018-06-28T02:11:55.835Z,99.90
2018-06-28T02:14:33.267Z,99.90
2018-06-28T02:17:10.665Z,99.90
2018-06-28T02:19:48.034Z,99.90
2018-06-28T02:22:25.174Z,99.90
2018-06-28T02:25:02.175Z,99.90
2018-06-28T02:27:39.743Z,99.90
2018-06-28T02:30:16.728Z,99.90
2018-06-28T02:32:55.707Z,99.90
2018-06-28T02:35:32.927Z,99.90
2018-06-28T02:38:10.429Z,99.90
2018-06-28T02:40:47.155Z,99.90
2018-06-28T02:43:24.223Z,99.90
2018-06-28T02:46:01.430Z,99.90
2018-06-28T02:48:38.597Z,99.90
2018-06-28T02:51:15.711Z,99.90
2018-06-28T02:53:52.530Z,99.90
2018-06-28T02:56:29.898Z,99.90
2018-06-28T02:59:06.992Z,99.90
2018-06-28T03:01:43.773Z,99.90
2018-06-28T03:04:21.130Z,99.90
2018-06-28T03:06:58.468Z,99.90
2018-06-28T03:09:35.682Z,99.90
2018-06-28T03:12:13.329Z,99.90
2018-06-28T03:14:50.438Z,99.90
2018-06-28T03:17:28.030Z,99.90
2018-06-28T03:20:05.704Z,99.90
2018-06-28T03:22:43.394Z,99.90
2018-06-28T03:25:20.912Z,99.90
2018-06-28T03:27:58.290Z,99.90
2018-06-28T03:30:35.909Z,99.90
2018-06-28T03:33:13.127Z,99.90
2018-06-28T03:35:50.445Z,99.90
2018-06-28T03:38:27.819Z,99.90
2018-06-28T03:41:05.172Z,99.90
2018-06-28T03:43:42.920Z,99.90
2018-06-28T03:46:20.549Z,99.90
2018-06-28T03:48:57.605Z,99.90
2018-06-28T03:51:35.153Z,99.90
2018-06-28T03:54:11.915Z,99.80
2018-06-28T03:56:49.235Z,99.70
2018-06-28T03:59:26.139Z,99.40
2018-06-28T04:02:03.007Z,99.20
2018-06-28T04:04:40.392Z,98.90
2018-06-28T04:07:17.460Z,98.80
2018-06-28T04:09:54.716Z,98.80
2018-06-28T04:12:31.783Z,98.60
2018-06-28T04:15:08.688Z,98.50
2018-06-28T04:17:45.856Z,98.30
2018-06-28T04:20:23.651Z,98.90
2018-06-28T04:23:00.634Z,99.40
2018-06-28T04:25:37.696Z,99.60
2018-06-28T04:28:14.876Z,99.90
2018-06-28T04:30:52.091Z,99.90
2018-06-28T04:33:29.044Z,99.90
2018-06-28T04:41:42.074Z,99.90
2018-06-28T04:44:19.031Z,99.80
2018-06-28T04:46:55.600Z,99.00
2018-06-28T04:49:32.781Z,99.70
2018-06-28T04:52:09.860Z,99.60
2018-06-28T04:55:06.122Z,99.70
2018-06-28T04:57:42.871Z,99.90
2018-06-28T05:00:20.169Z,99.90
2018-06-28T05:02:57.526Z,99.90
2018-06-28T05:05:34.405Z,99.90
2018-06-28T05:08:11.854Z,99.90
2018-06-28T05:10:49.972Z,99.90
2018-06-28T05:13:27.387Z,99.90
2018-06-28T05:16:04.598Z,99.90
2018-06-28T05:18:41.558Z,99.90
2018-06-28T05:21:19.071Z,99.90
2018-06-28T05:23:56.569Z,99.90
2018-06-28T05:29:10.694Z,99.90
2018-06-28T05:31:48.127Z,99.90
2018-06-28T05:34:25.234Z,99.90
2018-06-28T05:37:02.576Z,99.90
2018-06-28T05:39:39.996Z,99.90
2018-06-28T05:42:16.445Z,99.90
2018-06-28T05:44:53.721Z,99.90
2018-06-28T05:47:31.028Z,99.90
2018-06-28T05:50:08.279Z,99.90
2018-06-28T05:52:44.773Z,99.90
2018-06-28T05:55:21.377Z,99.90
2018-06-28T05:57:58.587Z,99.90
2018-06-28T06:00:35.862Z,99.90
2018-06-28T06:03:13.116Z,99.90
2018-06-28T06:05:50.542Z,99.90
2018-06-28T06:08:27.116Z,99.90
2018-06-28T06:11:04.248Z,98.40
2018-06-28T06:13:41.212Z,98.80
2018-06-28T06:16:18.618Z,98.70
2018-06-28T06:18:55.410Z,98.40
2018-06-28T06:21:33.167Z,98.70
2018-06-28T06:24:10.049Z,99.20
2018-06-28T06:26:46.943Z,99.20
2018-06-28T06:29:24.216Z,99.20
2018-06-28T06:32:01.344Z,98.80
2018-06-28T06:34:38.512Z,98.30
2018-06-28T06:37:15.391Z,97.90
2018-06-28T06:39:53.352Z,97.90
2018-06-28T06:42:31.037Z,97.90
2018-06-28T06:45:08.461Z,98.00
2018-06-28T06:47:45.756Z,98.30
2018-06-28T06:50:23.345Z,98.40
2018-06-28T06:53:00.049Z,98.40
2018-06-28T06:55:37.287Z,98.10
2018-06-28T06:58:14.629Z,97.70
2018-06-28T07:00:52.059Z,97.20
2018-06-28T07:03:29.108Z,97.40
2018-06-28T07:08:44.249Z,97.70
2018-06-28T07:11:22.010Z,97.50
2018-06-28T07:13:58.715Z,96.90
2018-06-28T07:16:35.729Z,96.80
2018-06-28T07:19:12.473Z,96.90
2018-06-28T07:21:49.312Z,96.50
2018-06-28T07:24:27.067Z,96.40
2018-06-28T07:27:04.160Z,95.50
2018-06-28T07:29:42.992Z,95.00
2018-06-28T07:32:20.603Z,94.20
2018-06-28T07:34:57.783Z,94.00
2018-06-28T07:37:34.570Z,93.90
2018-06-28T07:40:12.228Z,94.00
2018-06-28T07:42:49.645Z,94.20
2018-06-28T07:45:27.438Z,94.60
2018-06-28T07:48:04.297Z,94.60
2018-06-28T07:50:46.403Z,93.70
2018-06-28T07:53:23.516Z,93.40
2018-06-28T07:56:00.413Z,93.50
2018-06-28T08:01:14.054Z,92.50
2018-06-28T08:03:51.020Z,89.30
2018-06-28T08:06:28.831Z,91.60
2018-06-28T08:09:07.615Z,92.00
2018-06-28T08:11:45.332Z,90.50
2018-06-28T08:14:22.145Z,88.90
2018-06-28T08:16:59.422Z,89.80
2018-06-28T08:19:37.017Z,90.00
2018-06-28T08:22:14.175Z,90.00
2018-06-28T08:24:51.590Z,90.60
2018-06-28T08:27:28.641Z,88.30
2018-06-28T08:30:05.770Z,86.40
2018-06-28T08:32:42.502Z,83.50
2018-06-28T08:40:33.805Z,81.20
2018-06-28T08:43:12.135Z,84.50
2018-06-28T08:45:49.671Z,83.90
2018-06-28T08:48:26.633Z,85.40
2018-06-28T08:51:03.800Z,82.20
2018-06-28T08:53:40.827Z,82.20
2018-06-28T08:56:17.890Z,82.00
2018-06-28T08:58:55.499Z,80.00
2018-06-28T09:01:32.202Z,78.50
2018-06-28T09:04:09.435Z,81.20
2018-06-28T09:06:46.530Z,80.40
2018-06-28T09:09:24.769Z,82.50
2018-06-28T09:12:03.245Z,81.80
2018-06-28T09:14:40.730Z,83.60
2018-06-28T09:17:17.797Z,80.10
2018-06-28T09:19:55.921Z,80.80
2018-06-28T09:22:32.700Z,82.20
2018-06-28T09:25:10.004Z,82.30
2018-06-28T09:27:47.375Z,78.30
2018-06-28T09:30:24.350Z,74.50
2018-06-28T09:33:01.571Z,73.20
2018-06-28T09:35:38.722Z,74.80
2018-06-28T09:38:15.849Z,73.00
2018-06-28T09:40:54.035Z,75.30
2018-06-28T09:43:31.029Z,79.30
2018-06-28T09:46:08.230Z,79.30
2018-06-28T09:48:45.405Z,78.40
2018-06-28T09:51:22.440Z,78.40
2018-06-28T09:54:00.492Z,80.90
2018-06-28T09:56:38.637Z,78.70
2018-06-28T09:59:15.228Z,79.10
2018-06-28T10:01:52.410Z,80.80
2018-06-28T10:04:30.106Z,79.40
2018-06-28T10:10:05.208Z,78.00
2018-06-28T10:12:42.196Z,78.60
2018-06-28T10:15:19.831Z,79.10
2018-06-28T10:17:57.281Z,81.40
2018-06-28T10:20:34.592Z,79.30
2018-06-28T10:23:11.835Z,81.80
2018-06-28T10:25:49.002Z,81.40
2018-06-28T10:28:26.634Z,78.30
2018-06-28T10:31:03.788Z,76.50
2018-06-28T10:33:40.677Z,79.70
2018-06-28T10:36:17.412Z,81.00
2018-06-28T10:38:54.627Z,80.00
2018-06-28T10:41:32.440Z,78.90
2018-06-28T10:44:09.224Z,76.30
2018-06-28T10:46:46.109Z,78.10
2018-06-28T10:49:23.370Z,79.50
2018-06-28T10:52:01.618Z,74.80
2018-06-28T10:54:38.795Z,72.60
2018-06-28T10:57:15.702Z,76.50
2018-06-28T10:59:53.042Z,79.00
2018-06-28T11:02:30.679Z,82.30
2018-06-28T11:05:07.823Z,84.00
2018-06-28T11:07:44.822Z,84.10
2018-06-28T11:10:22.111Z,82.60
2018-06-28T11:12:58.813Z,80.00
2018-06-28T11:15:35.731Z,78.10
2018-06-28T11:18:12.802Z,79.00
2018-06-28T11:20:49.633Z,81.00
2018-06-28T11:23:26.987Z,77.40
2018-06-28T11:26:03.880Z,77.70
2018-06-28T11:28:41.544Z,75.90
2018-06-28T11:31:18.628Z,73.50
2018-06-28T11:33:56.344Z,72.70
2018-06-28T11:36:33.919Z,72.30
2018-06-28T11:39:11.857Z,71.90
2018-06-28T11:41:49.740Z,71.50
2018-06-28T11:44:26.551Z,70.40
2018-06-28T11:47:10.065Z,69.50
2018-06-28T11:49:47.220Z,69.10
2018-06-28T11:52:24.871Z,69.70
2018-06-28T11:55:01.922Z,70.80
2018-06-28T11:57:38.562Z,70.80
2018-06-28T12:00:15.829Z,72.60
2018-06-28T12:02:52.977Z,72.20
2018-06-28T12:05:30.339Z,71.80
2018-06-28T12:08:08.891Z,72.10
2018-06-28T12:10:46.033Z,72.20
2018-06-28T12:13:22.787Z,71.80
2018-06-28T12:16:00.308Z,71.20
2018-06-28T12:18:36.949Z,71.50
2018-06-28T12:21:15.174Z,72.00
2018-06-28T12:23:51.810Z,74.00
2018-06-28T12:26:28.600Z,77.40
2018-06-28T12:29:05.426Z,77.50
2018-06-28T12:31:42.622Z,76.60
2018-06-28T12:34:19.845Z,77.30
2018-06-28T12:36:56.636Z,76.60
2018-06-28T12:39:34.220Z,77.80
2018-06-28T12:42:11.619Z,76.80
2018-06-28T12:44:49.321Z,79.90
2018-06-28T12:47:46.813Z,83.60
2018-06-28T12:50:23.777Z,82.20
2018-06-28T12:53:02.895Z,79.70
2018-06-28T12:56:19.010Z,77.80
2018-06-28T12:58:57.846Z,76.60
2018-06-28T13:01:35.401Z,77.50
2018-06-28T13:04:12.446Z,77.10
2018-06-28T13:06:49.724Z,74.10
2018-06-28T13:09:27.182Z,75.40
2018-06-28T13:12:04.779Z,74.70
2018-06-28T13:14:41.520Z,75.70
2018-06-28T13:17:18.436Z,75.40
2018-06-28T13:19:55.480Z,75.50
2018-06-28T13:22:32.616Z,73.40
2018-06-28T13:27:46.629Z,74.10
2018-06-28T13:30:23.808Z,74.30
2018-06-28T13:33:00.749Z,75.80
2018-06-28T13:35:38.446Z,74.60
2018-06-28T13:38:16.064Z,74.20
2018-06-28T13:40:53.469Z,78.90
2018-06-28T13:43:30.488Z,78.20
2018-06-28T13:46:07.690Z,80.40
2018-06-28T13:48:44.763Z,87.30
2018-06-28T13:51:21.948Z,90.30
2018-06-28T13:53:59.411Z,90.10
2018-06-28T13:56:36.672Z,91.30
2018-06-28T13:59:13.756Z,89.10
2018-06-28T14:01:51.401Z,84.80
2018-06-28T14:07:05.375Z,81.80
2018-06-28T14:09:42.358Z,87.50
2018-06-28T14:12:19.484Z,89.90
2018-06-28T14:14:56.810Z,90.30
2018-06-28T14:17:34.576Z,91.00
2018-06-28T14:20:11.345Z,90.40
2018-06-28T14:22:48.996Z,92.40
2018-06-28T14:25:42.792Z,90.60
2018-06-28T14:28:19.789Z,91.80
2018-06-28T14:30:56.716Z,93.00
2018-06-28T14:33:34.289Z,92.40
2018-06-28T14:36:11.377Z,92.30
2018-06-28T14:38:48.223Z,94.60
2018-06-28T14:41:25.243Z,93.90
2018-06-28T14:44:02.246Z,91.70
2018-06-28T14:46:39.293Z,95.00
2018-06-28T14:49:16.460Z,94.50
2018-06-28T14:51:53.261Z,94.30
2018-06-28T14:54:30.323Z,95.00
2018-06-28T14:57:07.319Z,93.90
2018-06-28T14:59:44.708Z,95.30
2018-06-28T15:02:22.404Z,95.60
2018-06-28T15:04:59.424Z,95.60
2018-06-28T15:07:36.771Z,96.00
2018-06-28T15:12:51.174Z,95.70
2018-06-28T15:15:28.230Z,95.90
2018-06-28T15:18:05.418Z,95.80
2018-06-28T15:20:42.607Z,95.50
2018-06-28T15:23:19.844Z,95.30
2018-06-28T15:25:56.707Z,95.80
2018-06-28T15:28:33.973Z,95.40
2018-06-28T15:31:11.332Z,96.40
2018-06-28T15:33:54.782Z,96.50
2018-06-28T15:36:31.772Z,97.80
2018-06-28T15:39:10.383Z,97.20
2018-06-28T15:41:47.804Z,98.00
2018-06-28T15:44:25.027Z,99.90
2018-06-28T15:47:02.269Z,99.90
2018-06-28T15:49:39.284Z,99.90
2018-06-28T15:52:16.360Z,98.30
2018-06-28T15:54:54.529Z,99.90
2018-06-28T15:57:31.866Z,96.80
2018-06-28T16:02:46.048Z,99.90
2018-06-28T16:05:22.993Z,99.90
2018-06-28T16:08:00.103Z,99.90
2018-06-28T16:10:37.396Z,99.90
2018-06-28T16:13:14.458Z,99.90
2018-06-28T16:15:51.672Z,99.90
2018-06-28T16:18:29.112Z,99.90
2018-06-28T16:21:06.066Z,99.90
2018-06-28T16:23:43.717Z,99.90
2018-06-28T16:26:20.892Z,99.90
2018-06-28T16:28:58.404Z,99.90
2018-06-28T16:31:35.641Z,99.90
2018-06-28T16:34:12.584Z,99.90
2018-06-28T16:36:49.215Z,99.90
2018-06-28T16:39:26.689Z,99.90
2018-06-28T16:42:03.730Z,99.90
2018-06-28T16:44:40.831Z,99.90
2018-06-28T16:47:17.829Z,99.90
2018-06-28T16:49:55.797Z,99.90
2018-06-28T16:52:32.892Z,99.90
2018-06-28T16:55:10.228Z,99.90
2018-06-28T16:57:47.368Z,99.90
2018-06-28T17:00:24.490Z,99.90
2018-06-28T17:03:01.836Z,99.90
2018-06-28T17:05:39.409Z,99.90
2018-06-28T17:08:16.405Z,99.90
2018-06-28T17:10:53.709Z,99.90
2018-06-28T17:13:31.555Z,99.90
2018-06-28T17:16:08.889Z,99.90
2018-06-28T17:18:45.755Z,99.90
2018-06-28T17:21:23.007Z,99.90
2018-06-28T17:24:00.103Z,99.90
2018-06-28T17:26:38.162Z,99.90
2018-06-28T17:29:15.157Z,99.90
2018-06-28T17:31:52.841Z,99.90
2018-06-28T17:34:30.552Z,99.90
2018-06-28T17:37:07.373Z,99.90
2018-06-28T17:39:44.748Z,99.90
2018-06-28T17:42:21.900Z,99.90
2018-06-28T17:44:59.122Z,99.90
2018-06-28T17:47:36.263Z,99.90
2018-06-28T17:50:14.132Z,99.90
2018-06-28T17:52:51.386Z,99.90
2018-06-28T17:55:28.567Z,99.90
2018-06-28T17:58:05.478Z,99.90
2018-06-28T18:00:43.192Z,99.90
2018-06-28T18:03:20.190Z,99.90
2018-06-28T18:05:57.145Z,99.90
2018-06-28T18:08:33.913Z,99.90
2018-06-28T18:11:11.399Z,99.90
2018-06-28T18:13:48.526Z,99.90
2018-06-28T18:16:25.886Z,99.90
2018-06-28T18:19:02.796Z,99.90
2018-06-28T18:21:39.844Z,99.90
2018-06-28T18:24:16.750Z,99.90
2018-06-28T18:26:54.425Z,99.90
2018-06-28T18:29:31.264Z,99.90
2018-06-28T18:32:09.044Z,99.90
2018-06-28T18:34:45.975Z,99.90
2018-06-28T18:37:22.973Z,99.90
2018-06-28T18:40:00.159Z,99.90
2018-06-28T18:42:37.657Z,99.90
2018-06-28T18:45:14.375Z,99.90
2018-06-28T18:47:51.820Z,99.90
2018-06-28T18:50:28.819Z,99.90
2018-06-28T18:53:05.757Z,99.90
2018-06-28T18:55:43.206Z,99.90
2018-06-28T18:58:20.108Z,99.90
2018-06-28T19:00:57.850Z,99.90
2018-06-28T19:03:35.018Z,99.90
2018-06-28T19:06:12.045Z,99.90
2018-06-28T19:08:49.422Z,99.90
2018-06-28T19:11:26.225Z,99.90
2018-06-28T19:14:08.462Z,99.90
2018-06-28T19:16:50.621Z,99.90
2018-06-28T19:19:27.806Z,99.90
2018-06-28T19:22:09.624Z,99.90
2018-06-28T19:24:46.730Z,99.90
2018-06-28T19:27:23.633Z,99.90
2018-06-28T19:30:05.895Z,99.90
2018-06-28T19:32:43.119Z,99.90
2018-06-28T19:35:20.195Z,99.90
2018-06-28T19:37:57.586Z,99.90
2018-06-28T19:40:39.778Z,99.90
2018-06-28T19:43:16.611Z,99.90
2018-06-28T19:45:54.088Z,99.90
2018-06-28T19:48:31.399Z,99.90
2018-06-28T19:51:14.315Z,99.90
2018-06-28T19:53:50.906Z,99.90
2018-06-28T19:56:28.362Z,99.90
2018-06-28T20:01:46.423Z,99.90
2018-06-28T20:04:28.767Z,99.90
2018-06-28T20:07:06.035Z,99.90
2018-06-28T20:09:43.945Z,99.90
2018-06-28T20:12:25.519Z,99.90
2018-06-28T20:15:07.489Z,99.90
2018-06-28T20:18:03.789Z,99.90
2018-06-28T20:20:40.779Z,99.90
2018-06-28T20:23:17.751Z,99.90
2018-06-28T20:25:54.798Z,99.90
2018-06-28T20:28:37.049Z,99.90
2018-06-28T20:38:12.345Z,99.90
2018-06-28T20:40:49.277Z,99.90
2018-06-28T20:43:26.885Z,99.90
2018-06-28T20:46:04.154Z,99.90
2018-06-28T20:48:40.810Z,99.90
2018-06-28T20:51:18.171Z,99.90
2018-06-28T20:53:55.311Z,99.90
2018-06-28T20:56:32.409Z,99.90
2018-06-28T20:59:09.496Z,99.90
2018-06-28T21:01:46.870Z,99.90
2018-06-28T21:04:24.523Z,99.90
2018-06-28T21:07:02.471Z,99.90
2018-06-28T21:09:38.891Z,99.90
2018-06-28T21:12:16.192Z,99.90
2018-06-28T21:14:53.309Z,99.90
2018-06-28T21:17:30.934Z,99.90
2018-06-28T21:20:09.472Z,99.90
2018-06-28T21:22:46.794Z,99.90
2018-06-28T21:25:24.727Z,99.90
2018-06-28T21:28:01.625Z,99.90
2018-06-28T21:30:39.021Z,99.90
2018-06-28T21:33:16.894Z,99.90
2018-06-28T21:35:54.128Z,99.90
2018-06-28T21:38:31.411Z,99.90
2018-06-28T21:41:08.855Z,99.90
2018-06-28T21:43:46.507Z,99.90
2018-06-28T21:46:23.495Z,99.90
2018-06-28T21:49:00.815Z,99.90
2018-06-28T21:51:38.235Z,99.90
2018-06-28T21:54:15.079Z,99.90
2018-06-28T21:56:52.466Z,99.90
2018-06-28T21:59:29.390Z,99.90
2018-06-28T22:02:06.597Z,99.90
2018-06-28T22:04:43.812Z,99.90
2018-06-28T22:07:20.656Z,99.90
2018-06-28T22:09:57.871Z,99.90
2018-06-28T22:12:34.919Z,99.90
2018-06-28T22:15:16.878Z,99.90
2018-06-28T22:17:56.067Z,99.90
2018-06-28T22:20:33.896Z,99.90
2018-06-28T22:25:47.351Z,99.90
2018-06-28T22:31:00.662Z,99.90
2018-06-28T22:33:37.290Z,99.90
2018-06-28T22:36:14.547Z,99.90
2018-06-28T22:38:55.489Z,99.90
2018-06-28T22:41:31.848Z,99.90
2018-06-28T22:44:09.953Z,99.90
2018-06-28T22:46:47.730Z,99.90
2018-06-28T22:49:24.704Z,99.90
2018-06-28T22:52:01.440Z,99.90
2018-06-28T22:54:39.670Z,99.90
2018-06-28T22:57:16.740Z,99.90
2018-06-28T22:59:53.856Z,99.90
2018-06-28T23:02:31.718Z,99.90
2018-06-28T23:05:09.061Z,99.90
2018-06-28T23:07:45.912Z,99.90
2018-06-28T23:10:23.011Z,99.90
2018-06-28T23:13:00.219Z,99.90
2018-06-28T23:15:37.398Z,99.90
2018-06-28T23:18:14.737Z,99.90
2018-06-28T23:20:51.801Z,99.90
2018-06-28T23:23:29.081Z,99.90
2018-06-28T23:26:06.478Z,99.90
2018-06-28T23:28:43.700Z,99.90
2018-06-28T23:31:21.108Z,99.90
2018-06-28T23:33:58.933Z,99.90
2018-06-28T23:36:36.570Z,99.90
2018-06-28T23:39:13.624Z,99.90
2018-06-28T23:41:52.384Z,99.90
2018-06-28T23:44:30.482Z,99.90
2018-06-28T23:47:08.095Z,99.90
2018-06-28T23:49:45.306Z,99.90
2018-06-28T23:52:22.702Z,99.90
2018-06-28T23:54:59.199Z,99.90
2018-06-28T23:57:36.915Z,99.90
